createdAt,value
2022-10-23T00:03:13.552Z,83.88
2022-10-23T00:08:15.442Z,196.45
2022-10-23T00:13:17.181Z,132.88
2022-10-23T00:18:18.981Z,286.17
2022-10-23T00:23:20.752Z,277.33
2022-10-23T00:28:22.721Z,216.00
2022-10-23T00:33:24.503Z,272.83
2022-10-23T00:38:26.413Z,264.70
2022-10-23T00:43:30.300Z,236.25
2022-10-23T00:48:32.243Z,343.92
2022-10-23T00:53:34.363Z,114.18
2022-10-23T00:58:36.266Z,91.78
2022-10-23T01:03:38.054Z,249.02
2022-10-23T01:08:50.673Z,302.83
2022-10-23T01:14:00.546Z,530.25
2022-10-23T01:19:16.813Z,544.00
2022-10-23T01:24:42.443Z,407.92
2022-10-23T01:29:51.654Z,369.73
2022-10-23T01:35:12.448Z,178.45
2022-10-23T01:40:25.630Z,308.88
2022-10-23T01:45:30.561Z,336.17
2022-10-23T01:50:34.202Z,363.40
2022-10-23T01:55:37.796Z,379.98
2022-10-23T02:00:41.578Z,439.65
2022-10-23T02:05:44.489Z,796.70
2022-10-23T02:10:55.832Z,486.40
2022-10-23T02:16:11.280Z,180.15
2022-10-23T02:21:17.748Z,477.20
2022-10-23T02:26:38.179Z,497.60
2022-10-23T02:31:40.069Z,460.00
2022-10-23T02:36:41.858Z,465.75
2022-10-23T02:41:43.649Z,511.15
2022-10-23T02:47:10.659Z,735.05
2022-10-23T02:52:20.206Z,537.25
2022-10-23T02:57:47.455Z,464.23
2022-10-23T03:02:49.135Z,500.70
2022-10-23T03:07:51.943Z,296.15
2022-10-23T03:12:53.853Z,322.92
2022-10-23T03:17:55.944Z,206.40
2022-10-23T03:22:57.913Z,289.83
2022-10-23T03:28:00.425Z,288.40
2022-10-23T03:33:02.193Z,301.38
2022-10-23T03:38:04.011Z,197.50
2022-10-23T03:43:05.971Z,185.80
2022-10-23T03:48:08.360Z,295.85
2022-10-23T03:53:10.119Z,284.85
2022-10-23T03:58:11.948Z,182.82
2022-10-23T04:03:13.661Z,249.27
2022-10-23T04:08:19.171Z,147.88
2022-10-23T04:13:22.110Z,234.90
2022-10-23T04:18:23.837Z,206.70
2022-10-23T04:23:25.659Z,320.00
2022-10-23T04:28:27.713Z,351.00
2022-10-23T04:33:29.514Z,274.35
2022-10-23T04:38:31.294Z,264.77
2022-10-23T04:43:33.035Z,155.45
2022-10-23T04:48:34.936Z,350.08
2022-10-23T04:53:36.747Z,274.20
2022-10-23T04:58:38.536Z,219.05
2022-10-23T05:03:40.406Z,212.45
2022-10-23T05:08:42.196Z,301.15
2022-10-23T05:13:43.976Z,192.73
2022-10-23T05:18:48.349Z,178.95
2022-10-23T05:23:50.889Z,333.15
2022-10-23T05:28:52.768Z,299.83
2022-10-23T05:33:56.557Z,170.07
2022-10-23T05:38:59.203Z,246.05
2022-10-23T05:44:00.961Z,296.33
2022-10-23T05:49:02.844Z,283.67
2022-10-23T05:54:07.907Z,309.35
2022-10-23T05:59:10.384Z,366.17
2022-10-23T06:04:12.182Z,460.08
2022-10-23T06:09:15.409Z,493.23
2022-10-23T06:14:17.254Z,284.80
2022-10-23T06:19:19.185Z,525.50
2022-10-23T06:24:21.006Z,500.67
2022-10-23T06:29:23.057Z,399.42
2022-10-23T06:34:24.985Z,348.05
2022-10-23T06:39:29.768Z,314.63
2022-10-23T06:44:34.078Z,474.05
2022-10-23T06:49:36.004Z,551.97
2022-10-23T06:54:37.782Z,365.42
2022-10-23T06:59:39.602Z,320.52
2022-10-23T07:04:41.459Z,299.73
2022-10-23T07:09:43.282Z,373.38
2022-10-23T07:14:45.090Z,281.00
2022-10-23T07:19:47.859Z,439.42
2022-10-23T07:24:49.861Z,494.08
2022-10-23T07:29:52.453Z,374.95
2022-10-23T07:34:54.282Z,312.08
2022-10-23T07:39:56.334Z,308.55
2022-10-23T07:44:58.220Z,223.70
2022-10-23T07:50:00.011Z,418.30
2022-10-23T07:55:01.976Z,329.42
2022-10-23T08:00:04.581Z,93.50
2022-10-23T08:05:07.809Z,157.98
2022-10-23T08:10:10.095Z,286.90
2022-10-23T08:15:11.987Z,274.23
2022-10-23T08:20:13.925Z,436.70
2022-10-23T08:25:15.853Z,472.02
2022-10-23T08:30:17.813Z,348.90
2022-10-23T08:35:19.802Z,186.52
2022-10-23T08:40:26.153Z,219.30
2022-10-23T08:45:40.182Z,47.67
2022-10-23T08:50:49.093Z,79.32
2022-10-23T08:56:03.043Z,77.53
2022-10-23T09:01:42.383Z,24.70
2022-10-23T09:06:56.392Z,67.68
2022-10-23T09:12:21.500Z,26.60
2022-10-23T09:17:24.828Z,34.83
2022-10-23T09:22:28.452Z,14.57
2022-10-23T09:27:30.393Z,15.77
2022-10-23T09:32:34.395Z,15.77
2022-10-23T09:37:48.695Z,8.52
2022-10-23T09:42:59.394Z,15.25
2022-10-23T09:53:38.723Z,8.55
2022-10-23T09:58:52.441Z,12.05
2022-10-23T10:03:54.563Z,11.23
2022-10-23T10:09:00.105Z,9.55
2022-10-23T10:14:30.041Z,10.98
2022-10-23T10:20:20.758Z,12.85
2022-10-23T10:25:52.387Z,11.32
2022-10-23T10:31:03.194Z,11.52
2022-10-23T10:36:38.859Z,9.98
2022-10-23T10:41:58.883Z,10.48
2022-10-23T10:47:22.036Z,11.18
2022-10-23T10:52:49.263Z,8.15
2022-10-23T10:57:59.301Z,10.57
2022-10-23T11:03:24.716Z,13.18
2022-10-23T11:08:49.850Z,10.40
2022-10-23T11:13:59.760Z,11.50
2022-10-23T11:19:20.626Z,9.05
2022-10-23T11:29:40.944Z,11.30
2022-10-23T11:35:19.748Z,6.53
2022-10-23T11:40:24.655Z,11.95
2022-10-23T11:45:46.663Z,13.35
2022-10-23T11:50:48.424Z,9.05
2022-10-23T11:56:11.543Z,6.65
2022-10-23T12:01:32.627Z,8.02
2022-10-23T12:06:56.975Z,10.90
2022-10-23T12:12:07.826Z,9.23
2022-10-23T12:17:24.742Z,9.30
2022-10-23T12:22:41.473Z,7.68
2022-10-23T12:28:00.416Z,6.63
2022-10-23T12:33:27.935Z,6.88
2022-10-23T12:38:33.980Z,8.00
2022-10-23T12:43:39.130Z,11.20
2022-10-23T12:48:49.246Z,6.40
2022-10-23T12:53:51.548Z,9.95
2022-10-23T12:59:02.941Z,8.38
2022-10-23T13:04:10.817Z,7.72
2022-10-23T13:09:24.686Z,8.75
2022-10-23T13:14:43.654Z,4.53
2022-10-23T13:19:46.448Z,7.23
2022-10-23T13:24:48.565Z,11.82
2022-10-23T13:29:50.397Z,7.47
2022-10-23T13:35:10.044Z,6.90
2022-10-23T13:40:25.867Z,6.40
2022-10-23T13:45:28.112Z,4.95
2022-10-23T13:50:29.899Z,15.93
2022-10-23T13:55:31.822Z,7.60
2022-10-23T14:00:33.746Z,11.43
2022-10-23T14:05:35.567Z,5.80
2022-10-23T14:10:37.345Z,7.13
2022-10-23T14:15:39.355Z,4.88
2022-10-23T14:20:41.133Z,6.22
2022-10-23T14:25:42.867Z,4.43
2022-10-23T14:30:44.815Z,5.88
2022-10-23T14:35:46.625Z,5.80
2022-10-23T14:40:48.466Z,4.78
2022-10-23T14:45:50.395Z,5.55
2022-10-23T14:50:52.526Z,4.22
2022-10-23T14:55:54.292Z,6.10
2022-10-23T15:01:00.230Z,7.97
2022-10-23T15:06:02.369Z,4.60
2022-10-23T15:11:07.711Z,8.82
2022-10-23T15:16:12.285Z,5.18
2022-10-23T15:21:14.863Z,5.15
2022-10-23T15:26:23.562Z,5.00
2022-10-23T15:31:43.472Z,5.30
2022-10-23T15:36:47.260Z,3.63
2022-10-23T15:41:53.054Z,7.13
2022-10-23T15:46:57.191Z,4.55
2022-10-23T15:51:59.678Z,9.45
2022-10-23T15:57:02.282Z,5.47
2022-10-23T16:02:04.176Z,6.80
2022-10-23T16:07:07.273Z,6.53
2022-10-23T16:12:09.253Z,10.98
2022-10-23T16:17:11.607Z,6.32
2022-10-23T16:22:13.506Z,5.25
2022-10-23T16:27:15.345Z,8.00
2022-10-23T16:32:18.444Z,6.32
2022-10-23T16:37:20.187Z,8.20
2022-10-23T16:42:21.981Z,9.52
2022-10-23T16:47:24.228Z,9.88
2022-10-23T16:52:27.086Z,9.93
2022-10-23T16:57:29.075Z,8.50
2022-10-23T17:02:30.976Z,12.18
2022-10-23T17:07:32.897Z,13.93
2022-10-23T17:12:36.270Z,13.15
2022-10-23T17:17:38.017Z,13.05
2022-10-23T17:22:40.371Z,10.50
2022-10-23T17:27:43.225Z,10.30
2022-10-23T17:32:47.501Z,8.15
2022-10-23T17:37:50.651Z,8.93
2022-10-23T17:42:52.658Z,8.10
2022-10-23T17:47:54.739Z,11.30
2022-10-23T17:52:56.558Z,11.73
2022-10-23T17:57:58.729Z,9.38
2022-10-23T18:03:00.674Z,13.55
2022-10-23T18:08:02.595Z,8.18
2022-10-23T18:13:04.444Z,7.95
2022-10-23T18:18:08.018Z,12.73
2022-10-23T18:23:11.674Z,13.02
2022-10-23T18:28:14.237Z,10.32
2022-10-23T18:33:16.868Z,8.25
2022-10-23T18:38:18.680Z,12.48
2022-10-23T18:43:41.878Z,21.52
2022-10-23T18:48:44.322Z,15.15
2022-10-23T18:53:46.922Z,26.02
2022-10-23T18:58:54.038Z,23.45
2022-10-23T19:03:57.768Z,20.05
2022-10-23T19:09:00.029Z,10.80
2022-10-23T19:14:02.781Z,15.80
2022-10-23T19:19:14.767Z,15.38
2022-10-23T19:24:22.279Z,20.33
2022-10-23T19:29:26.858Z,12.43
2022-10-23T19:34:28.897Z,17.63
2022-10-23T19:39:30.818Z,12.88
2022-10-23T19:44:32.618Z,14.38
2022-10-23T19:49:34.436Z,20.95
2022-10-23T19:54:38.099Z,21.33
2022-10-23T19:59:40.410Z,19.80
2022-10-23T20:04:42.879Z,40.60
2022-10-23T20:09:45.795Z,432.75
2022-10-23T20:14:49.566Z,412.83
2022-10-23T20:19:53.577Z,14.00
2022-10-23T20:24:55.521Z,23.55
2022-10-23T20:29:58.488Z,24.17
2022-10-23T20:35:01.152Z,20.02
2022-10-23T20:40:04.718Z,19.50
2022-10-23T20:45:07.854Z,22.48
2022-10-23T20:50:10.058Z,27.33
2022-10-23T20:55:12.195Z,54.78
2022-10-23T21:00:15.661Z,42.75
2022-10-23T21:05:17.895Z,44.03
2022-10-23T21:10:19.818Z,18.42
2022-10-23T21:15:21.766Z,32.47
2022-10-23T21:20:23.559Z,746.83
2022-10-23T21:25:25.425Z,622.10
2022-10-23T21:30:27.381Z,713.65
2022-10-23T21:35:30.151Z,523.22
2022-10-23T21:40:32.162Z,306.88
2022-10-23T21:45:35.329Z,234.48
2022-10-23T21:50:37.293Z,234.68
2022-10-23T21:55:39.360Z,310.63
2022-10-23T22:00:41.190Z,108.45
2022-10-23T22:05:43.040Z,48.65
2022-10-23T22:10:44.931Z,166.20
2022-10-23T22:15:46.754Z,472.75
2022-10-23T22:20:48.551Z,336.30
2022-10-23T22:25:50.411Z,222.82
2022-10-23T22:30:52.274Z,214.82
2022-10-23T22:36:00.921Z,406.83
2022-10-23T22:41:04.346Z,769.13
2022-10-23T22:46:17.682Z,366.70
2022-10-23T22:51:21.620Z,245.88
2022-10-23T22:56:27.130Z,209.60
2022-10-23T23:01:35.918Z,182.50
2022-10-23T23:06:37.981Z,181.75
2022-10-23T23:11:51.438Z,290.48
2022-10-23T23:16:54.117Z,397.08
2022-10-23T23:21:57.651Z,300.15
2022-10-23T23:26:59.380Z,308.08
2022-10-23T23:32:01.240Z,272.45
2022-10-23T23:37:03.089Z,334.45
2022-10-23T23:42:05.210Z,119.85
2022-10-23T23:47:07.200Z,106.00
2022-10-23T23:52:09.101Z,155.23
2022-10-23T23:57:11.860Z,391.95
